sensor_id;sensor_type;location;lat;lon;timestamp;P1;durP1;ratioP1;P2;durP2;ratioP2
71558;SDS011;59382;43.852;25.952;2022-12-18T00:01:52;16.70;;;8.45;;
71558;SDS011;59382;43.852;25.952;2022-12-18T00:04:20;18.38;;;9.30;;
71558;SDS011;59382;43.852;25.952;2022-12-18T00:06:48;19.08;;;9.52;;
71558;SDS011;59382;43.852;25.952;2022-12-18T00:09:13;20.55;;;9.93;;
71558;SDS011;59382;43.852;25.952;2022-12-18T00:11:39;25.95;;;11.88;;
71558;SDS011;59382;43.852;25.952;2022-12-18T00:14:05;21.05;;;9.45;;
71558;SDS011;59382;43.852;25.952;2022-12-18T00:16:30;24.45;;;11.50;;
71558;SDS011;59382;43.852;25.952;2022-12-18T00:19:00;24.15;;;11.65;;
71558;SDS011;59382;43.852;25.952;2022-12-18T00:21:30;24.02;;;11.73;;
71558;SDS011;59382;43.852;25.952;2022-12-18T00:23:59;18.17;;;11.32;;
71558;SDS011;59382;43.852;25.952;2022-12-18T00:26:26;22.88;;;11.25;;
71558;SDS011;59382;43.852;25.952;2022-12-18T00:28:54;22.80;;;11.50;;
71558;SDS011;59382;43.852;25.952;2022-12-18T00:31:23;18.73;;;10.38;;
71558;SDS011;59382;43.852;25.952;2022-12-18T00:33:49;22.23;;;10.48;;
71558;SDS011;59382;43.852;25.952;2022-12-18T00:36:19;23.77;;;11.48;;
71558;SDS011;59382;43.852;25.952;2022-12-18T00:38:46;20.13;;;10.52;;
71558;SDS011;59382;43.852;25.952;2022-12-18T00:41:12;19.52;;;11.15;;
71558;SDS011;59382;43.852;25.952;2022-12-18T00:44:00;22.88;;;11.15;;
71558;SDS011;59382;43.852;25.952;2022-12-18T00:52:20;25.60;;;12.40;;
71558;SDS011;59382;43.852;25.952;2022-12-18T00:57:57;23.98;;;11.68;;
71558;SDS011;59382;43.852;25.952;2022-12-18T01:00:31;18.77;;;10.57;;
71558;SDS011;59382;43.852;25.952;2022-12-18T01:02:59;22.52;;;12.93;;
71558;SDS011;59382;43.852;25.952;2022-12-18T01:05:32;21.02;;;10.13;;
71558;SDS011;59382;43.852;25.952;2022-12-18T01:08:08;24.85;;;11.75;;
71558;SDS011;59382;43.852;25.952;2022-12-18T01:10:41;21.88;;;11.60;;
71558;SDS011;59382;43.852;25.952;2022-12-18T01:13:07;21.33;;;11.82;;
71558;SDS011;59382;43.852;25.952;2022-12-18T01:15:33;20.92;;;11.35;;
71558;SDS011;59382;43.852;25.952;2022-12-18T01:17:58;23.63;;;9.68;;
71558;SDS011;59382;43.852;25.952;2022-12-18T01:20:23;21.58;;;10.68;;
71558;SDS011;59382;43.852;25.952;2022-12-18T01:22:49;21.27;;;10.55;;
71558;SDS011;59382;43.852;25.952;2022-12-18T01:25:14;15.77;;;9.35;;
71558;SDS011;59382;43.852;25.952;2022-12-18T01:27:40;18.85;;;9.88;;
71558;SDS011;59382;43.852;25.952;2022-12-18T01:30:06;24.02;;;10.45;;
71558;SDS011;59382;43.852;25.952;2022-12-18T01:32:32;26.05;;;9.52;;
71558;SDS011;59382;43.852;25.952;2022-12-18T01:34:58;20.88;;;11.55;;
71558;SDS011;59382;43.852;25.952;2022-12-18T01:37:23;24.27;;;10.52;;
71558;SDS011;59382;43.852;25.952;2022-12-18T01:39:49;19.33;;;10.20;;
71558;SDS011;59382;43.852;25.952;2022-12-18T01:42:15;21.08;;;9.85;;
71558;SDS011;59382;43.852;25.952;2022-12-18T01:44:58;21.90;;;10.80;;
71558;SDS011;59382;43.852;25.952;2022-12-18T01:47:25;20.15;;;10.68;;
71558;SDS011;59382;43.852;25.952;2022-12-18T01:50:28;20.27;;;10.02;;
71558;SDS011;59382;43.852;25.952;2022-12-18T01:53:07;17.48;;;9.65;;
71558;SDS011;59382;43.852;25.952;2022-12-18T01:55:43;22.80;;;10.32;;
71558;SDS011;59382;43.852;25.952;2022-12-18T01:58:11;17.83;;;9.57;;
71558;SDS011;59382;43.852;25.952;2022-12-18T02:00:37;20.30;;;9.90;;
71558;SDS011;59382;43.852;25.952;2022-12-18T02:03:02;19.50;;;9.30;;
71558;SDS011;59382;43.852;25.952;2022-12-18T02:05:40;22.95;;;9.73;;
71558;SDS011;59382;43.852;25.952;2022-12-18T02:08:21;18.95;;;9.80;;
71558;SDS011;59382;43.852;25.952;2022-12-18T02:11:06;19.60;;;9.90;;
71558;SDS011;59382;43.852;25.952;2022-12-18T02:19:27;18.67;;;9.10;;
71558;SDS011;59382;43.852;25.952;2022-12-18T02:27:33;19.95;;;10.07;;
71558;SDS011;59382;43.852;25.952;2022-12-18T02:30:03;18.92;;;10.30;;
71558;SDS011;59382;43.852;25.952;2022-12-18T02:32:34;25.80;;;9.20;;
71558;SDS011;59382;43.852;25.952;2022-12-18T02:35:04;19.67;;;10.10;;
71558;SDS011;59382;43.852;25.952;2022-12-18T02:37:33;23.48;;;10.80;;
71558;SDS011;59382;43.852;25.952;2022-12-18T02:40:00;16.83;;;9.45;;
71558;SDS011;59382;43.852;25.952;2022-12-18T02:42:28;19.20;;;10.10;;
71558;SDS011;59382;43.852;25.952;2022-12-18T02:44:54;20.33;;;10.57;;
71558;SDS011;59382;43.852;25.952;2022-12-18T02:47:21;18.73;;;9.98;;
71558;SDS011;59382;43.852;25.952;2022-12-18T02:55:40;16.13;;;9.48;;
71558;SDS011;59382;43.852;25.952;2022-12-18T03:01:19;22.50;;;10.57;;
71558;SDS011;59382;43.852;25.952;2022-12-18T03:09:11;20.15;;;10.27;;
71558;SDS011;59382;43.852;25.952;2022-12-18T03:11:52;21.52;;;11.93;;
71558;SDS011;59382;43.852;25.952;2022-12-18T03:14:42;23.73;;;10.60;;
71558;SDS011;59382;43.852;25.952;2022-12-18T03:17:10;21.52;;;11.05;;
71558;SDS011;59382;43.852;25.952;2022-12-18T03:19:40;25.40;;;12.60;;
71558;SDS011;59382;43.852;25.952;2022-12-18T03:22:08;24.42;;;11.70;;
71558;SDS011;59382;43.852;25.952;2022-12-18T03:24:34;24.52;;;11.45;;
71558;SDS011;59382;43.852;25.952;2022-12-18T03:27:05;24.45;;;11.50;;
71558;SDS011;59382;43.852;25.952;2022-12-18T03:29:36;22.52;;;12.00;;
71558;SDS011;59382;43.852;25.952;2022-12-18T03:32:07;21.40;;;11.85;;
71558;SDS011;59382;43.852;25.952;2022-12-18T03:34:40;22.00;;;11.45;;
71558;SDS011;59382;43.852;25.952;2022-12-18T03:37:09;25.05;;;11.95;;
71558;SDS011;59382;43.852;25.952;2022-12-18T03:39:35;23.67;;;11.10;;
71558;SDS011;59382;43.852;25.952;2022-12-18T03:44:38;19.75;;;10.93;;
71558;SDS011;59382;43.852;25.952;2022-12-18T03:47:14;24.05;;;11.98;;
71558;SDS011;59382;43.852;25.952;2022-12-18T03:52:38;26.05;;;12.75;;
71558;SDS011;59382;43.852;25.952;2022-12-18T03:55:07;22.55;;;11.77;;
71558;SDS011;59382;43.852;25.952;2022-12-18T03:57:34;23.75;;;11.63;;
71558;SDS011;59382;43.852;25.952;2022-12-18T04:00:09;24.08;;;11.82;;
71558;SDS011;59382;43.852;25.952;2022-12-18T04:02:40;21.95;;;12.27;;
71558;SDS011;59382;43.852;25.952;2022-12-18T04:05:09;24.00;;;13.07;;
71558;SDS011;59382;43.852;25.952;2022-12-18T04:07:37;29.10;;;12.45;;
71558;SDS011;59382;43.852;25.952;2022-12-18T04:10:05;25.80;;;12.60;;
71558;SDS011;59382;43.852;25.952;2022-12-18T04:12:32;25.35;;;13.00;;
71558;SDS011;59382;43.852;25.952;2022-12-18T04:14:58;23.30;;;12.43;;
71558;SDS011;59382;43.852;25.952;2022-12-18T04:17:23;26.20;;;11.63;;
71558;SDS011;59382;43.852;25.952;2022-12-18T04:19:49;22.52;;;12.20;;
71558;SDS011;59382;43.852;25.952;2022-12-18T04:22:14;27.55;;;13.63;;
71558;SDS011;59382;43.852;25.952;2022-12-18T04:24:40;27.98;;;14.25;;
71558;SDS011;59382;43.852;25.952;2022-12-18T04:27:06;26.27;;;12.27;;
71558;SDS011;59382;43.852;25.952;2022-12-18T04:29:31;29.75;;;13.80;;
71558;SDS011;59382;43.852;25.952;2022-12-18T04:31:57;32.05;;;13.93;;
71558;SDS011;59382;43.852;25.952;2022-12-18T04:34:22;26.70;;;14.52;;
71558;SDS011;59382;43.852;25.952;2022-12-18T04:36:48;29.95;;;13.30;;
71558;SDS011;59382;43.852;25.952;2022-12-18T04:39:14;29.88;;;13.70;;
71558;SDS011;59382;43.852;25.952;2022-12-18T04:41:39;28.02;;;14.60;;
71558;SDS011;59382;43.852;25.952;2022-12-18T04:44:06;28.17;;;12.90;;
71558;SDS011;59382;43.852;25.952;2022-12-18T04:46:31;29.05;;;13.45;;
71558;SDS011;59382;43.852;25.952;2022-12-18T04:48:57;27.25;;;13.35;;
71558;SDS011;59382;43.852;25.952;2022-12-18T04:51:23;23.20;;;13.13;;
71558;SDS011;59382;43.852;25.952;2022-12-18T04:53:50;29.95;;;13.70;;
71558;SDS011;59382;43.852;25.952;2022-12-18T04:56:15;34.50;;;14.55;;
71558;SDS011;59382;43.852;25.952;2022-12-18T04:58:42;30.65;;;13.32;;
71558;SDS011;59382;43.852;25.952;2022-12-18T05:01:09;27.92;;;13.82;;
71558;SDS011;59382;43.852;25.952;2022-12-18T05:03:37;27.65;;;13.80;;
71558;SDS011;59382;43.852;25.952;2022-12-18T05:06:03;30.10;;;14.07;;
71558;SDS011;59382;43.852;25.952;2022-12-18T05:08:30;26.63;;;13.45;;
71558;SDS011;59382;43.852;25.952;2022-12-18T05:10:59;31.33;;;14.85;;
71558;SDS011;59382;43.852;25.952;2022-12-18T05:13:26;35.08;;;15.07;;
71558;SDS011;59382;43.852;25.952;2022-12-18T05:15:52;32.95;;;15.93;;
71558;SDS011;59382;43.852;25.952;2022-12-18T05:18:18;32.55;;;14.85;;
71558;SDS011;59382;43.852;25.952;2022-12-18T05:20:43;28.88;;;15.20;;
71558;SDS011;59382;43.852;25.952;2022-12-18T05:23:09;29.67;;;13.32;;
71558;SDS011;59382;43.852;25.952;2022-12-18T05:25:34;33.30;;;14.77;;
71558;SDS011;59382;43.852;25.952;2022-12-18T05:28:00;24.45;;;13.05;;
71558;SDS011;59382;43.852;25.952;2022-12-18T05:30:26;28.85;;;13.52;;
71558;SDS011;59382;43.852;25.952;2022-12-18T05:32:54;30.70;;;13.82;;
71558;SDS011;59382;43.852;25.952;2022-12-18T05:35:20;32.00;;;14.32;;
71558;SDS011;59382;43.852;25.952;2022-12-18T05:37:45;34.22;;;14.70;;
71558;SDS011;59382;43.852;25.952;2022-12-18T05:40:11;29.80;;;14.38;;
71558;SDS011;59382;43.852;25.952;2022-12-18T05:42:37;30.08;;;14.95;;
71558;SDS011;59382;43.852;25.952;2022-12-18T05:45:03;29.58;;;14.88;;
71558;SDS011;59382;43.852;25.952;2022-12-18T05:47:29;27.13;;;13.20;;
71558;SDS011;59382;43.852;25.952;2022-12-18T05:49:54;29.65;;;15.10;;
71558;SDS011;59382;43.852;25.952;2022-12-18T05:52:20;34.58;;;15.93;;
71558;SDS011;59382;43.852;25.952;2022-12-18T05:54:45;33.65;;;14.35;;
71558;SDS011;59382;43.852;25.952;2022-12-18T05:57:11;28.35;;;14.45;;
71558;SDS011;59382;43.852;25.952;2022-12-18T05:59:36;28.60;;;13.52;;
71558;SDS011;59382;43.852;25.952;2022-12-18T06:02:02;33.03;;;14.65;;
71558;SDS011;59382;43.852;25.952;2022-12-18T06:04:28;23.17;;;12.05;;
71558;SDS011;59382;43.852;25.952;2022-12-18T06:06:54;36.65;;;16.55;;
71558;SDS011;59382;43.852;25.952;2022-12-18T06:09:19;29.85;;;14.55;;
71558;SDS011;59382;43.852;25.952;2022-12-18T06:11:47;27.52;;;15.30;;
71558;SDS011;59382;43.852;25.952;2022-12-18T06:14:12;29.90;;;14.13;;
71558;SDS011;59382;43.852;25.952;2022-12-18T06:16:38;29.50;;;14.40;;
71558;SDS011;59382;43.852;25.952;2022-12-18T06:19:04;37.38;;;15.02;;
71558;SDS011;59382;43.852;25.952;2022-12-18T06:21:30;28.83;;;13.23;;
71558;SDS011;59382;43.852;25.952;2022-12-18T06:23:57;28.15;;;14.15;;
71558;SDS011;59382;43.852;25.952;2022-12-18T06:26:23;29.50;;;14.13;;
71558;SDS011;59382;43.852;25.952;2022-12-18T06:28:49;28.80;;;14.45;;
71558;SDS011;59382;43.852;25.952;2022-12-18T06:31:14;30.75;;;14.65;;
71558;SDS011;59382;43.852;25.952;2022-12-18T06:33:40;28.80;;;15.00;;
71558;SDS011;59382;43.852;25.952;2022-12-18T06:38:32;34.88;;;14.88;;
71558;SDS011;59382;43.852;25.952;2022-12-18T06:40:59;31.27;;;15.18;;
71558;SDS011;59382;43.852;25.952;2022-12-18T06:43:24;31.55;;;14.63;;
71558;SDS011;59382;43.852;25.952;2022-12-18T06:45:50;30.92;;;15.60;;
71558;SDS011;59382;43.852;25.952;2022-12-18T06:48:19;28.25;;;14.32;;
71558;SDS011;59382;43.852;25.952;2022-12-18T06:51:03;30.05;;;14.38;;
71558;SDS011;59382;43.852;25.952;2022-12-18T06:53:31;34.30;;;15.75;;
71558;SDS011;59382;43.852;25.952;2022-12-18T06:56:04;28.95;;;14.93;;
71558;SDS011;59382;43.852;25.952;2022-12-18T06:58:47;32.53;;;13.88;;
71558;SDS011;59382;43.852;25.952;2022-12-18T07:01:15;28.05;;;13.70;;
71558;SDS011;59382;43.852;25.952;2022-12-18T07:03:42;35.17;;;15.40;;
71558;SDS011;59382;43.852;25.952;2022-12-18T07:06:15;35.35;;;15.35;;
71558;SDS011;59382;43.852;25.952;2022-12-18T07:08:42;36.35;;;15.18;;
71558;SDS011;59382;43.852;25.952;2022-12-18T07:11:08;30.92;;;16.25;;
71558;SDS011;59382;43.852;25.952;2022-12-18T07:13:34;34.58;;;14.98;;
71558;SDS011;59382;43.852;25.952;2022-12-18T07:16:03;33.92;;;15.13;;
71558;SDS011;59382;43.852;25.952;2022-12-18T07:18:33;33.78;;;16.20;;
71558;SDS011;59382;43.852;25.952;2022-12-18T07:21:01;31.80;;;14.95;;
71558;SDS011;59382;43.852;25.952;2022-12-18T07:23:28;35.42;;;15.20;;
71558;SDS011;59382;43.852;25.952;2022-12-18T07:25:53;33.88;;;17.00;;
71558;SDS011;59382;43.852;25.952;2022-12-18T07:28:19;35.13;;;15.88;;
71558;SDS011;59382;43.852;25.952;2022-12-18T07:30:44;33.50;;;14.98;;
71558;SDS011;59382;43.852;25.952;2022-12-18T07:33:10;27.67;;;15.45;;
71558;SDS011;59382;43.852;25.952;2022-12-18T07:35:35;30.52;;;15.88;;
71558;SDS011;59382;43.852;25.952;2022-12-18T07:38:01;30.88;;;14.80;;
71558;SDS011;59382;43.852;25.952;2022-12-18T07:40:26;34.60;;;14.77;;
71558;SDS011;59382;43.852;25.952;2022-12-18T07:42:52;30.83;;;14.82;;
71558;SDS011;59382;43.852;25.952;2022-12-18T07:45:17;32.15;;;15.20;;
71558;SDS011;59382;43.852;25.952;2022-12-18T07:47:43;32.92;;;15.45;;
71558;SDS011;59382;43.852;25.952;2022-12-18T07:50:09;41.95;;;16.42;;
71558;SDS011;59382;43.852;25.952;2022-12-18T07:52:35;33.58;;;15.98;;
71558;SDS011;59382;43.852;25.952;2022-12-18T07:55:00;33.55;;;16.45;;
71558;SDS011;59382;43.852;25.952;2022-12-18T07:57:26;34.03;;;16.05;;
71558;SDS011;59382;43.852;25.952;2022-12-18T07:59:52;28.13;;;14.90;;
71558;SDS011;59382;43.852;25.952;2022-12-18T08:02:17;34.35;;;16.08;;
71558;SDS011;59382;43.852;25.952;2022-12-18T08:04:44;29.85;;;14.65;;
71558;SDS011;59382;43.852;25.952;2022-12-18T08:07:09;29.90;;;15.40;;
71558;SDS011;59382;43.852;25.952;2022-12-18T08:09:35;27.85;;;14.25;;
71558;SDS011;59382;43.852;25.952;2022-12-18T08:12:00;35.20;;;14.77;;
71558;SDS011;59382;43.852;25.952;2022-12-18T08:14:26;32.65;;;13.68;;
71558;SDS011;59382;43.852;25.952;2022-12-18T08:16:51;28.23;;;13.93;;
71558;SDS011;59382;43.852;25.952;2022-12-18T08:19:17;31.70;;;14.82;;
71558;SDS011;59382;43.852;25.952;2022-12-18T08:21:42;38.72;;;14.23;;
71558;SDS011;59382;43.852;25.952;2022-12-18T08:24:08;25.30;;;13.93;;
71558;SDS011;59382;43.852;25.952;2022-12-18T08:26:34;27.58;;;14.32;;
71558;SDS011;59382;43.852;25.952;2022-12-18T08:29:00;34.35;;;15.35;;
71558;SDS011;59382;43.852;25.952;2022-12-18T08:31:26;34.55;;;15.73;;
71558;SDS011;59382;43.852;25.952;2022-12-18T08:33:53;28.23;;;14.40;;
71558;SDS011;59382;43.852;25.952;2022-12-18T08:36:20;27.25;;;13.10;;
71558;SDS011;59382;43.852;25.952;2022-12-18T08:38:46;31.45;;;14.00;;
71558;SDS011;59382;43.852;25.952;2022-12-18T08:41:12;28.02;;;14.00;;
71558;SDS011;59382;43.852;25.952;2022-12-18T08:43:40;30.67;;;14.68;;
71558;SDS011;59382;43.852;25.952;2022-12-18T08:46:25;31.58;;;14.43;;
71558;SDS011;59382;43.852;25.952;2022-12-18T08:48:52;35.78;;;15.02;;
71558;SDS011;59382;43.852;25.952;2022-12-18T08:51:19;27.60;;;13.07;;
71558;SDS011;59382;43.852;25.952;2022-12-18T08:53:45;28.13;;;13.65;;
71558;SDS011;59382;43.852;25.952;2022-12-18T08:56:12;27.38;;;14.45;;
71558;SDS011;59382;43.852;25.952;2022-12-18T08:58:42;29.20;;;13.65;;
71558;SDS011;59382;43.852;25.952;2022-12-18T09:01:11;31.17;;;14.35;;
71558;SDS011;59382;43.852;25.952;2022-12-18T09:03:38;36.17;;;14.15;;
71558;SDS011;59382;43.852;25.952;2022-12-18T09:06:05;30.85;;;13.93;;
71558;SDS011;59382;43.852;25.952;2022-12-18T09:08:31;32.40;;;13.45;;
71558;SDS011;59382;43.852;25.952;2022-12-18T09:10:56;29.25;;;13.57;;
71558;SDS011;59382;43.852;25.952;2022-12-18T09:13:22;24.63;;;13.82;;
71558;SDS011;59382;43.852;25.952;2022-12-18T09:15:49;25.38;;;13.88;;
71558;SDS011;59382;43.852;25.952;2022-12-18T09:18:17;27.35;;;13.95;;
71558;SDS011;59382;43.852;25.952;2022-12-18T09:20:44;27.05;;;13.38;;
71558;SDS011;59382;43.852;25.952;2022-12-18T09:23:10;38.10;;;13.48;;
71558;SDS011;59382;43.852;25.952;2022-12-18T09:25:36;33.38;;;14.77;;
71558;SDS011;59382;43.852;25.952;2022-12-18T09:28:03;32.80;;;12.70;;
71558;SDS011;59382;43.852;25.952;2022-12-18T09:30:40;26.70;;;13.15;;
71558;SDS011;59382;43.852;25.952;2022-12-18T09:33:07;27.50;;;13.68;;
71558;SDS011;59382;43.852;25.952;2022-12-18T09:35:37;28.73;;;13.25;;
71558;SDS011;59382;43.852;25.952;2022-12-18T09:38:04;29.02;;;13.88;;
71558;SDS011;59382;43.852;25.952;2022-12-18T09:40:32;23.45;;;13.20;;
71558;SDS011;59382;43.852;25.952;2022-12-18T09:43:03;33.42;;;13.95;;
71558;SDS011;59382;43.852;25.952;2022-12-18T09:45:30;33.88;;;13.32;;
71558;SDS011;59382;43.852;25.952;2022-12-18T09:48:05;32.53;;;13.60;;
71558;SDS011;59382;43.852;25.952;2022-12-18T09:50:42;29.45;;;12.32;;
71558;SDS011;59382;43.852;25.952;2022-12-18T09:53:15;29.65;;;14.07;;
71558;SDS011;59382;43.852;25.952;2022-12-18T09:55:45;23.48;;;12.90;;
71558;SDS011;59382;43.852;25.952;2022-12-18T09:58:20;24.70;;;12.95;;
71558;SDS011;59382;43.852;25.952;2022-12-18T10:01:01;31.95;;;13.20;;
71558;SDS011;59382;43.852;25.952;2022-12-18T10:03:26;38.95;;;13.50;;
71558;SDS011;59382;43.852;25.952;2022-12-18T10:11:53;31.70;;;12.93;;
71558;SDS011;59382;43.852;25.952;2022-12-18T10:19:47;27.95;;;13.60;;
71558;SDS011;59382;43.852;25.952;2022-12-18T10:22:22;38.33;;;14.02;;
71558;SDS011;59382;43.852;25.952;2022-12-18T10:28:14;22.70;;;12.07;;
71558;SDS011;59382;43.852;25.952;2022-12-18T10:30:43;40.63;;;15.32;;
71558;SDS011;59382;43.852;25.952;2022-12-18T10:33:16;32.22;;;13.23;;
71558;SDS011;59382;43.852;25.952;2022-12-18T10:35:44;48.10;;;15.65;;
71558;SDS011;59382;43.852;25.952;2022-12-18T10:43:31;33.75;;;13.60;;
71558;SDS011;59382;43.852;25.952;2022-12-18T10:46:19;31.65;;;13.52;;
71558;SDS011;59382;43.852;25.952;2022-12-18T10:48:55;32.80;;;13.90;;
71558;SDS011;59382;43.852;25.952;2022-12-18T10:54:31;37.05;;;12.65;;
71558;SDS011;59382;43.852;25.952;2022-12-18T10:56:45;43.90;;;14.27;;
71558;SDS011;59382;43.852;25.952;2022-12-18T10:59:13;29.30;;;14.45;;
71558;SDS011;59382;43.852;25.952;2022-12-18T11:01:56;28.10;;;12.85;;
71558;SDS011;59382;43.852;25.952;2022-12-18T11:04:27;46.50;;;14.20;;
71558;SDS011;59382;43.852;25.952;2022-12-18T11:09:32;28.77;;;13.25;;
71558;SDS011;59382;43.852;25.952;2022-12-18T11:12:03;43.65;;;14.88;;
71558;SDS011;59382;43.852;25.952;2022-12-18T11:14:44;43.47;;;13.55;;
71558;SDS011;59382;43.852;25.952;2022-12-18T11:17:19;32.75;;;13.80;;
71558;SDS011;59382;43.852;25.952;2022-12-18T11:20:23;40.55;;;14.07;;
71558;SDS011;59382;43.852;25.952;2022-12-18T11:23:03;38.00;;;14.05;;
71558;SDS011;59382;43.852;25.952;2022-12-18T11:25:31;39.03;;;15.32;;
71558;SDS011;59382;43.852;25.952;2022-12-18T11:28:03;41.70;;;14.52;;
71558;SDS011;59382;43.852;25.952;2022-12-18T11:30:32;31.08;;;14.43;;
71558;SDS011;59382;43.852;25.952;2022-12-18T11:40:54;31.25;;;15.35;;
71558;SDS011;59382;43.852;25.952;2022-12-18T11:43:33;45.72;;;15.35;;
71558;SDS011;59382;43.852;25.952;2022-12-18T11:46:23;41.08;;;14.88;;
71558;SDS011;59382;43.852;25.952;2022-12-18T11:49:15;28.95;;;14.00;;
71558;SDS011;59382;43.852;25.952;2022-12-18T11:52:00;29.00;;;14.18;;
71558;SDS011;59382;43.852;25.952;2022-12-18T11:57:02;31.80;;;13.33;;
71558;SDS011;59382;43.852;25.952;2022-12-18T12:05:20;27.27;;;14.63;;
71558;SDS011;59382;43.852;25.952;2022-12-18T12:07:54;32.22;;;14.23;;
71558;SDS011;59382;43.852;25.952;2022-12-18T12:22:32;32.38;;;16.60;;
71558;SDS011;59382;43.852;25.952;2022-12-18T12:31:02;38.80;;;15.63;;
71558;SDS011;59382;43.852;25.952;2022-12-18T12:37:15;32.20;;;14.85;;
71558;SDS011;59382;43.852;25.952;2022-12-18T12:40:02;29.48;;;13.60;;
71558;SDS011;59382;43.852;25.952;2022-12-18T12:45:30;34.22;;;15.15;;
71558;SDS011;59382;43.852;25.952;2022-12-18T12:48:01;41.55;;;16.95;;
71558;SDS011;59382;43.852;25.952;2022-12-18T12:50:29;37.88;;;15.57;;
71558;SDS011;59382;43.852;25.952;2022-12-18T12:52:59;29.00;;;14.77;;
71558;SDS011;59382;43.852;25.952;2022-12-18T12:55:42;30.48;;;16.15;;
71558;SDS011;59382;43.852;25.952;2022-12-18T13:06:58;32.15;;;16.45;;
71558;SDS011;59382;43.852;25.952;2022-12-18T13:12:33;40.28;;;14.75;;
71558;SDS011;59382;43.852;25.952;2022-12-18T13:15:24;40.90;;;17.35;;
71558;SDS011;59382;43.852;25.952;2022-12-18T13:34:15;38.53;;;17.65;;
71558;SDS011;59382;43.852;25.952;2022-12-18T13:36:46;39.13;;;16.17;;
71558;SDS011;59382;43.852;25.952;2022-12-18T13:48:24;36.30;;;16.05;;
71558;SDS011;59382;43.852;25.952;2022-12-18T13:53:33;34.42;;;17.55;;
71558;SDS011;59382;43.852;25.952;2022-12-18T13:56:03;38.15;;;18.00;;
71558;SDS011;59382;43.852;25.952;2022-12-18T13:58:31;32.08;;;16.35;;
71558;SDS011;59382;43.852;25.952;2022-12-18T14:00:57;33.70;;;17.63;;
71558;SDS011;59382;43.852;25.952;2022-12-18T14:03:25;37.25;;;17.67;;
71558;SDS011;59382;43.852;25.952;2022-12-18T14:05:53;32.38;;;16.38;;
71558;SDS011;59382;43.852;25.952;2022-12-18T14:08:22;37.25;;;16.80;;
71558;SDS011;59382;43.852;25.952;2022-12-18T14:10:52;35.63;;;16.42;;
71558;SDS011;59382;43.852;25.952;2022-12-18T14:15:52;33.05;;;16.33;;
71558;SDS011;59382;43.852;25.952;2022-12-18T14:20:46;30.40;;;16.10;;
71558;SDS011;59382;43.852;25.952;2022-12-18T14:25:59;41.90;;;17.95;;
71558;SDS011;59382;43.852;25.952;2022-12-18T14:28:29;37.20;;;17.00;;
71558;SDS011;59382;43.852;25.952;2022-12-18T14:30:57;36.03;;;16.60;;
71558;SDS011;59382;43.852;25.952;2022-12-18T14:33:27;40.28;;;17.38;;
71558;SDS011;59382;43.852;25.952;2022-12-18T14:38:38;35.20;;;17.30;;
71558;SDS011;59382;43.852;25.952;2022-12-18T14:43:37;35.95;;;17.67;;
71558;SDS011;59382;43.852;25.952;2022-12-18T14:49:05;39.67;;;18.23;;
71558;SDS011;59382;43.852;25.952;2022-12-18T14:54:29;45.47;;;17.98;;
71558;SDS011;59382;43.852;25.952;2022-12-18T14:59:40;38.05;;;18.58;;
71558;SDS011;59382;43.852;25.952;2022-12-18T15:02:27;46.60;;;18.55;;
71558;SDS011;59382;43.852;25.952;2022-12-18T15:05:05;46.78;;;21.85;;
71558;SDS011;59382;43.852;25.952;2022-12-18T15:07:45;40.75;;;19.08;;
71558;SDS011;59382;43.852;25.952;2022-12-18T15:10:17;32.28;;;17.30;;
71558;SDS011;59382;43.852;25.952;2022-12-18T15:12:48;38.65;;;17.05;;
71558;SDS011;59382;43.852;25.952;2022-12-18T15:18:21;37.00;;;16.77;;
71558;SDS011;59382;43.852;25.952;2022-12-18T15:21:10;37.45;;;18.35;;
71558;SDS011;59382;43.852;25.952;2022-12-18T15:23:51;39.00;;;18.77;;
71558;SDS011;59382;43.852;25.952;2022-12-18T15:26:21;41.17;;;17.45;;
71558;SDS011;59382;43.852;25.952;2022-12-18T15:28:51;32.58;;;16.55;;
71558;SDS011;59382;43.852;25.952;2022-12-18T15:31:31;39.58;;;18.27;;
71558;SDS011;59382;43.852;25.952;2022-12-18T15:34:22;35.97;;;17.42;;
71558;SDS011;59382;43.852;25.952;2022-12-18T15:36:51;36.67;;;18.35;;
71558;SDS011;59382;43.852;25.952;2022-12-18T15:39:17;43.45;;;18.75;;
71558;SDS011;59382;43.852;25.952;2022-12-18T15:41:43;42.83;;;20.00;;
71558;SDS011;59382;43.852;25.952;2022-12-18T15:44:30;40.30;;;19.30;;
71558;SDS011;59382;43.852;25.952;2022-12-18T15:47:06;45.60;;;20.73;;
71558;SDS011;59382;43.852;25.952;2022-12-18T15:49:35;40.10;;;21.02;;
71558;SDS011;59382;43.852;25.952;2022-12-18T15:52:01;47.67;;;21.73;;
71558;SDS011;59382;43.852;25.952;2022-12-18T15:54:34;48.15;;;21.77;;
71558;SDS011;59382;43.852;25.952;2022-12-18T15:57:21;40.85;;;20.95;;
71558;SDS011;59382;43.852;25.952;2022-12-18T16:00:00;40.17;;;20.20;;
71558;SDS011;59382;43.852;25.952;2022-12-18T16:02:31;49.45;;;21.00;;
71558;SDS011;59382;43.852;25.952;2022-12-18T16:05:00;50.35;;;24.15;;
71558;SDS011;59382;43.852;25.952;2022-12-18T16:07:26;59.85;;;26.90;;
71558;SDS011;59382;43.852;25.952;2022-12-18T16:09:55;55.22;;;23.75;;
71558;SDS011;59382;43.852;25.952;2022-12-18T16:12:23;53.10;;;24.70;;
71558;SDS011;59382;43.852;25.952;2022-12-18T16:14:50;44.55;;;21.45;;
71558;SDS011;59382;43.852;25.952;2022-12-18T16:17:17;48.08;;;20.92;;
71558;SDS011;59382;43.852;25.952;2022-12-18T16:19:45;40.25;;;20.25;;
71558;SDS011;59382;43.852;25.952;2022-12-18T16:22:22;36.92;;;18.70;;
71558;SDS011;59382;43.852;25.952;2022-12-18T16:25:08;46.20;;;20.67;;
71558;SDS011;59382;43.852;25.952;2022-12-18T16:27:52;41.25;;;19.45;;
71558;SDS011;59382;43.852;25.952;2022-12-18T16:30:21;40.70;;;19.83;;
71558;SDS011;59382;43.852;25.952;2022-12-18T16:32:56;40.92;;;16.50;;
71558;SDS011;59382;43.852;25.952;2022-12-18T16:35:22;31.60;;;15.70;;
71558;SDS011;59382;43.852;25.952;2022-12-18T16:37:51;26.60;;;12.48;;
71558;SDS011;59382;43.852;25.952;2022-12-18T16:40:20;22.75;;;12.30;;
71558;SDS011;59382;43.852;25.952;2022-12-18T16:42:49;29.75;;;12.65;;
71558;SDS011;59382;43.852;25.952;2022-12-18T16:45:15;28.00;;;11.77;;
71558;SDS011;59382;43.852;25.952;2022-12-18T16:47:43;25.85;;;12.20;;
71558;SDS011;59382;43.852;25.952;2022-12-18T16:50:18;25.65;;;13.23;;
71558;SDS011;59382;43.852;25.952;2022-12-18T16:52:44;23.98;;;12.13;;
71558;SDS011;59382;43.852;25.952;2022-12-18T16:55:10;24.00;;;11.88;;
71558;SDS011;59382;43.852;25.952;2022-12-18T16:57:35;23.13;;;12.10;;
71558;SDS011;59382;43.852;25.952;2022-12-18T17:00:02;23.30;;;12.82;;
71558;SDS011;59382;43.852;25.952;2022-12-18T17:02:30;26.38;;;12.02;;
71558;SDS011;59382;43.852;25.952;2022-12-18T17:04:57;24.02;;;11.70;;
71558;SDS011;59382;43.852;25.952;2022-12-18T17:07:25;23.50;;;11.70;;
71558;SDS011;59382;43.852;25.952;2022-12-18T17:09:52;21.70;;;11.15;;
71558;SDS011;59382;43.852;25.952;2022-12-18T17:12:18;19.92;;;11.00;;
71558;SDS011;59382;43.852;25.952;2022-12-18T17:14:44;22.08;;;10.63;;
71558;SDS011;59382;43.852;25.952;2022-12-18T17:17:14;24.02;;;11.15;;